Time;durP1;ratioP1;P1;durP2;ratioP2;P2;SDS_P1;SDS_P2;PMS_P1;PMS_P2;Temp;Humidity;BMP_temperature;BMP_pressure;BME280_temperature;BME280_humidity;BME280_pressure;Samples;Min_cycle;Max_cycle;Signal;HPM_P1;HPM_P2
2022/09/12 00:00:24;;;;;;;;;13.50;13.50;;;;;-144.76;100.00;60493.00;5091497;27;45229;-81
2022/09/12 00:02:54;;;;;;;;;13.25;13.25;;;;;-144.76;100.00;60493.00;5091527;27;44986;-81
2022/09/12 00:05:21;;;;;;;;;11.50;11.25;;;;;-144.76;100.00;60493.00;5089795;28;45209;-82
2022/09/12 00:07:46;;;;;;;;;16.50;14.50;;;;;-144.76;100.00;60493.00;5091312;27;44949;-82
2022/09/12 00:10:11;;;;;;;;;13.00;12.75;;;;;-144.76;100.00;60493.00;5090779;27;45255;-81
2022/09/12 00:12:37;;;;;;;;;12.00;11.75;;;;;-144.76;100.00;60493.00;5090271;27;45067;-82
2022/09/12 00:15:03;;;;;;;;;12.50;12.50;;;;;-144.76;100.00;60493.00;5090790;27;52305;-81
2022/09/12 00:17:28;;;;;;;;;12.75;11.75;;;;;-144.76;100.00;60493.00;5090946;27;45042;-81
2022/09/12 00:19:54;;;;;;;;;13.00;12.00;;;;;-144.76;100.00;60493.00;5090836;28;56747;-82
2022/09/12 00:22:19;;;;;;;;;12.00;12.00;;;;;-144.76;100.00;60493.00;5091235;27;45080;-81
2022/09/12 00:24:45;;;;;;;;;12.33;12.33;;;;;-144.76;100.00;60493.00;5090152;28;53836;-80
2022/09/12 00:27:10;;;;;;;;;14.33;14.33;;;;;-144.76;100.00;60493.00;5088395;28;60597;-81
2022/09/12 00:29:35;;;;;;;;;11.67;10.67;;;;;-144.76;100.00;60493.00;5091106;27;51866;-81
2022/09/12 00:32:01;;;;;;;;;11.67;11.00;;;;;-144.76;100.00;60493.00;5090316;28;50507;-80
2022/09/12 00:34:26;;;;;;;;;15.00;14.25;;;;;-144.76;100.00;60493.00;5091007;27;45033;-80
2022/09/12 00:36:51;;;;;;;;;13.75;13.75;;;;;-144.76;100.00;60493.00;5091072;27;45193;-80
2022/09/12 00:39:18;;;;;;;;;13.25;13.00;;;;;-144.76;100.00;60493.00;5090244;27;45601;-81
2022/09/12 00:41:43;;;;;;;;;11.25;10.25;;;;;-144.76;100.00;60493.00;5089097;27;45825;-81
2022/09/12 00:44:08;;;;;;;;;16.75;15.25;;;;;-144.76;100.00;60493.00;5091979;27;44956;-80
2022/09/12 00:46:40;;;;;;;;;13.00;13.00;;;;;-144.76;100.00;60493.00;5093436;27;45208;-80
2022/09/12 00:49:31;;;;;;;;;16.25;14.75;;;;;-144.76;100.00;60493.00;5093730;27;45644;-77
2022/09/12 00:52:17;;;;;;;;;13.00;12.75;;;;;-144.76;100.00;60493.00;5094494;27;45389;-80
2022/09/12 00:55:01;;;;;;;;;13.25;13.25;;;;;-144.76;100.00;60493.00;5092196;28;44964;-80
2022/09/12 00:57:34;;;;;;;;;15.75;14.00;;;;;-144.76;100.00;60493.00;5093459;27;44997;-80
2022/09/12 01:00:18;;;;;;;;;14.50;13.75;;;;;-144.76;100.00;60493.00;5093866;27;45019;-80
2022/09/12 01:02:47;;;;;;;;;12.25;12.00;;;;;-144.76;100.00;60493.00;5093745;27;45599;-80
2022/09/12 01:05:13;;;;;;;;;12.75;12.25;;;;;-144.76;100.00;60493.00;5093785;27;45149;-81
2022/09/12 01:07:39;;;;;;;;;15.00;14.25;;;;;-144.76;100.00;60493.00;5092422;28;45277;-80
2022/09/12 01:10:07;;;;;;;;;12.00;12.00;;;;;-144.76;100.00;60493.00;5093776;27;45205;-81
2022/09/12 01:12:33;;;;;;;;;13.50;12.75;;;;;-144.76;100.00;60493.00;5093163;27;45165;-81
2022/09/12 01:14:59;;;;;;;;;13.75;13.00;;;;;-144.76;100.00;60493.00;5093535;28;45016;-81
2022/09/12 01:17:41;;;;;;;;;14.75;14.75;;;;;-144.76;100.00;60493.00;5093359;27;45113;-80
2022/09/12 01:20:06;;;;;;;;;11.00;11.00;;;;;-144.76;100.00;60493.00;5093572;27;45123;-80
2022/09/12 01:23:01;;;;;;;;;15.33;13.67;;;;;-144.76;100.00;60493.00;5093730;27;45048;-81
2022/09/12 01:25:50;;;;;;;;;15.25;15.00;;;;;-144.76;100.00;60493.00;5093739;27;45045;-80
2022/09/12 01:28:40;;;;;;;;;14.50;13.50;;;;;-144.76;100.00;60493.00;5092157;27;45391;-80
2022/09/12 01:31:13;;;;;;;;;12.75;12.25;;;;;-144.76;100.00;60493.00;5093718;28;45802;-80
2022/09/12 01:34:13;;;;;;;;;14.50;14.50;;;;;-144.76;100.00;60493.00;5093290;28;45107;-80
2022/09/12 01:37:03;;;;;;;;;16.75;15.50;;;;;-144.76;100.00;60493.00;5093812;27;45011;-81
2022/09/12 01:40:23;;;;;;;;;13.75;12.75;;;;;-144.76;100.00;60493.00;5093948;27;45369;-80
2022/09/12 01:43:41;;;;;;;;;12.75;12.25;;;;;-144.76;100.00;60493.00;5088884;28;45974;-80
2022/09/12 01:46:19;;;;;;;;;15.25;13.25;;;;;-144.76;100.00;60493.00;5010569;28;45140;-80
2022/09/12 01:48:48;;;;;;;;;12.25;11.25;;;;;-144.76;100.00;60493.00;5092383;28;45096;-80
2022/09/12 01:51:25;;;;;;;;;16.25;14.25;;;;;-144.76;100.00;60493.00;5093246;27;45052;-80
2022/09/12 01:53:59;;;;;;;;;15.50;15.25;;;;;-144.76;100.00;60493.00;5093142;27;45690;-80
2022/09/12 01:56:29;;;;;;;;;16.25;14.75;;;;;-144.76;100.00;60493.00;5091422;27;45203;-80
2022/09/12 01:59:07;;;;;;;;;15.75;15.00;;;;;-144.76;100.00;60493.00;5092919;28;45052;-80
2022/09/12 02:01:38;;;;;;;;;15.50;14.50;;;;;-144.76;100.00;60493.00;5108786;27;45035;-80
2022/09/12 02:04:40;;;;;;;;;14.25;14.25;;;;;-144.76;100.00;60493.00;5108648;27;47494;-80
2022/09/12 02:07:13;;;;;;;;;14.50;13.50;;;;;-144.76;100.00;60493.00;5091658;27;45470;-80
2022/09/12 02:10:01;;;;;;;;;15.50;14.75;;;;;-144.76;100.00;60493.00;5092904;27;45012;-80
2022/09/12 02:12:35;;;;;;;;;14.75;13.75;;;;;-144.76;100.00;60493.00;5107409;27;45081;-80
2022/09/12 02:15:06;;;;;;;;;13.25;13.25;;;;;-144.76;100.00;60493.00;5092862;27;45699;-80
2022/09/12 02:17:37;;;;;;;;;15.00;15.00;;;;;-144.76;100.00;60493.00;5091855;27;45128;-80
2022/09/12 02:20:22;;;;;;;;;15.00;14.50;;;;;-144.76;100.00;60493.00;5093036;27;44888;-80
2022/09/12 02:22:49;;;;;;;;;15.50;14.00;;;;;-144.76;100.00;60493.00;5092275;27;44948;-80
2022/09/12 02:25:18;;;;;;;;;14.25;14.25;;;;;-144.76;100.00;60493.00;5092087;27;45545;-80
2022/09/12 02:27:51;;;;;;;;;13.00;13.00;;;;;-144.76;100.00;60493.00;5089746;27;45088;-80
2022/09/12 02:30:18;;;;;;;;;14.25;13.00;;;;;-144.76;100.00;60493.00;5093159;27;44991;-80
2022/09/12 02:33:21;;;;;;;;;14.75;12.00;;;;;-144.76;100.00;60493.00;5108657;27;45019;-80
2022/09/12 02:36:23;;;;;;;;;14.00;14.00;;;;;-144.76;100.00;60493.00;5092590;27;45381;-80
2022/09/12 02:38:49;;;;;;;;;16.00;15.00;;;;;-144.76;100.00;60493.00;5092572;27;45475;-80
2022/09/12 02:41:19;;;;;;;;;11.75;11.00;;;;;-144.76;100.00;60493.00;5092308;27;45025;-80
2022/09/12 02:43:46;;;;;;;;;15.50;14.75;;;;;-144.76;100.00;60493.00;5091158;28;45474;-80
2022/09/12 02:46:39;;;;;;;;;12.00;12.00;;;;;-144.76;100.00;60493.00;5092747;28;45955;-80
2022/09/12 02:49:05;;;;;;;;;14.75;13.50;;;;;-144.76;100.00;60493.00;5092742;28;45805;-81
2022/09/12 02:51:30;;;;;;;;;14.25;13.50;;;;;-144.76;100.00;60493.00;5090718;28;45134;-80
2022/09/12 02:53:56;;;;;;;;;14.75;13.75;;;;;-144.76;100.00;60493.00;5092672;27;45004;-81
2022/09/12 02:56:29;;;;;;;;;14.00;13.00;;;;;-144.76;100.00;60493.00;5091248;28;45229;-80
2022/09/12 02:59:01;;;;;;;;;13.50;13.50;;;;;-144.76;100.00;60493.00;5090477;28;45337;-80
2022/09/12 03:01:58;;;;;;;;;14.00;12.50;;;;;-144.76;100.00;60493.00;5091801;28;45354;-80
2022/09/12 03:04:51;;;;;;;;;14.00;13.75;;;;;-144.76;100.00;60493.00;5107758;27;45015;-80
2022/09/12 03:07:37;;;;;;;;;13.25;13.00;;;;;-144.76;100.00;60493.00;5090517;27;45385;-80
2022/09/12 03:10:38;;;;;;;;;14.75;14.25;;;;;-144.76;100.00;60493.00;5107303;27;45556;-80
2022/09/12 03:13:14;;;;;;;;;14.75;13.75;;;;;-144.76;100.00;60493.00;5088718;27;45442;-80
2022/09/12 03:15:57;;;;;;;;;15.00;14.00;;;;;-144.76;100.00;60493.00;5091903;27;44947;-80
2022/09/12 03:18:48;;;;;;;;;18.00;16.25;;;;;-144.76;100.00;60493.00;5091556;27;46042;-80
2022/09/12 03:21:48;;;;;;;;;15.00;13.25;;;;;-144.76;100.00;60493.00;5091337;27;45613;-80
2022/09/12 03:24:24;;;;;;;;;15.00;13.50;;;;;-144.76;100.00;60493.00;5091600;27;45095;-80
2022/09/12 03:27:08;;;;;;;;;14.00;14.00;;;;;-144.76;100.00;60493.00;5091339;27;44976;-80
2022/09/12 03:29:35;;;;;;;;;13.50;13.25;;;;;-144.76;100.00;60493.00;5091706;28;44984;-80
2022/09/12 03:32:01;;;;;;;;;14.50;14.50;;;;;-144.76;100.00;60493.00;5091465;28;45047;-80
2022/09/12 03:34:27;;;;;;;;;17.50;16.00;;;;;-144.76;100.00;60493.00;5091912;27;45176;-79
2022/09/12 03:36:57;;;;;;;;;15.25;14.25;;;;;-144.76;100.00;60493.00;5090810;27;45178;-80
2022/09/12 03:39:23;;;;;;;;;13.50;12.75;;;;;-144.76;100.00;60493.00;5106836;27;47720;-80
2022/09/12 03:41:49;;;;;;;;;15.50;15.50;;;;;-144.76;100.00;60493.00;5106955;27;45141;-80
2022/09/12 03:44:15;;;;;;;;;13.25;12.75;;;;;-144.76;100.00;60493.00;5107291;27;44893;-80
2022/09/12 03:46:41;;;;;;;;;13.00;12.75;;;;;-144.76;100.00;60493.00;5091546;27;45036;-80
2022/09/12 03:49:06;;;;;;;;;13.50;12.75;;;;;-144.76;100.00;60493.00;5091992;27;45164;-80
2022/09/12 03:51:31;;;;;;;;;14.00;13.33;;;;;-144.76;100.00;60493.00;5089564;28;59444;-80
2022/09/12 03:53:56;;;;;;;;;14.25;14.25;;;;;-144.76;100.00;60493.00;5091890;27;45461;-80
2022/09/12 03:56:22;;;;;;;;;17.00;15.00;;;;;-144.76;100.00;60493.00;5089886;28;60934;-80
2022/09/12 03:58:47;;;;;;;;;14.75;13.25;;;;;-144.76;100.00;60493.00;5090378;27;46050;-80
2022/09/12 04:01:15;;;;;;;;;14.75;14.00;;;;;-144.76;100.00;60493.00;5091144;27;45065;-80
2022/09/12 04:03:46;;;;;;;;;14.00;13.75;;;;;-144.76;100.00;60493.00;5091510;28;45072;-80
2022/09/12 04:06:15;;;;;;;;;16.50;16.00;;;;;-144.76;100.00;60493.00;5091186;27;45187;-80
2022/09/12 04:08:42;;;;;;;;;12.50;12.50;;;;;-144.76;100.00;60493.00;5106613;27;46231;-80
2022/09/12 04:11:11;;;;;;;;;15.00;15.00;;;;;-144.76;100.00;60493.00;5090957;27;45280;-80
2022/09/12 04:13:37;;;;;;;;;12.25;12.25;;;;;-144.76;100.00;60493.00;5089998;27;45058;-80
2022/09/12 04:16:04;;;;;;;;;15.75;14.25;;;;;-144.76;100.00;60493.00;5091362;28;44942;-80
2022/09/12 04:18:29;;;;;;;;;15.50;14.00;;;;;-144.76;100.00;60493.00;5091075;27;45932;-80
2022/09/12 04:20:55;;;;;;;;;16.25;15.00;;;;;-144.76;100.00;60493.00;5094835;27;45076;-80
2022/09/12 04:23:21;;;;;;;;;16.25;15.25;;;;;-144.76;100.00;60493.00;5094330;27;45163;-80
2022/09/12 04:25:54;;;;;;;;;13.75;13.75;;;;;-144.76;100.00;60493.00;5094378;28;44873;-80
2022/09/12 04:28:19;;;;;;;;;16.00;14.50;;;;;-144.76;100.00;60493.00;5092175;27;45498;-80
2022/09/12 04:30:44;;;;;;;;;14.50;13.75;;;;;-144.76;100.00;60493.00;5094829;27;44925;-80
2022/09/12 04:33:10;;;;;;;;;15.33;15.00;;;;;-144.76;100.00;60493.00;5094099;28;59527;-80
2022/09/12 04:35:35;;;;;;;;;16.00;15.00;;;;;-144.76;100.00;60493.00;5093944;28;59085;-80
2022/09/12 04:38:00;;;;;;;;;13.50;13.00;;;;;-144.76;100.00;60493.00;5093891;27;45126;-80
2022/09/12 04:40:28;;;;;;;;;12.75;12.00;;;;;-144.76;100.00;60493.00;5093599;27;50180;-80
2022/09/12 04:42:54;;;;;;;;;17.25;15.00;;;;;-144.76;100.00;60493.00;5092353;27;45095;-80
2022/09/12 04:45:20;;;;;;;;;12.75;12.00;;;;;-144.76;100.00;60493.00;5094299;27;45120;-80
2022/09/12 04:47:45;;;;;;;;;13.25;13.00;;;;;-144.76;100.00;60493.00;5094139;27;45353;-80
2022/09/12 04:50:11;;;;;;;;;14.00;13.25;;;;;-144.76;100.00;60493.00;5094425;27;45091;-80
2022/09/12 04:52:36;;;;;;;;;14.50;12.75;;;;;-144.76;100.00;60493.00;5094463;27;45027;-80
2022/09/12 04:55:02;;;;;;;;;13.33;13.00;;;;;-144.76;100.00;60493.00;5091818;28;65427;-80
2022/09/12 04:57:27;;;;;;;;;14.25;14.00;;;;;-144.76;100.00;60493.00;5091649;27;45809;-80
2022/09/12 04:59:52;;;;;;;;;15.00;13.67;;;;;-144.76;100.00;60493.00;5094153;28;46815;-80
2022/09/12 05:02:17;;;;;;;;;13.00;12.00;;;;;-144.76;100.00;60493.00;5093435;28;57567;-80
2022/09/12 05:04:43;;;;;;;;;14.33;14.00;;;;;-144.76;100.00;60493.00;5093103;28;59468;-80
2022/09/12 05:07:08;;;;;;;;;14.67;13.33;;;;;-144.76;100.00;60493.00;5093588;27;47573;-80
2022/09/12 05:09:33;;;;;;;;;13.00;12.50;;;;;-144.76;100.00;60493.00;5093750;28;45114;-80
2022/09/12 05:11:59;;;;;;;;;13.25;13.00;;;;;-144.76;100.00;60493.00;5092009;27;45369;-80
2022/09/12 05:14:25;;;;;;;;;14.00;12.00;;;;;-144.76;100.00;60493.00;5093826;27;45274;-80
2022/09/12 05:16:50;;;;;;;;;13.00;13.00;;;;;-144.76;100.00;60493.00;5093781;28;45683;-80
2022/09/12 05:19:16;;;;;;;;;15.50;14.50;;;;;-144.76;100.00;60493.00;5094095;27;44895;-80
2022/09/12 05:21:41;;;;;;;;;16.00;15.25;;;;;-144.76;100.00;60493.00;5094177;28;45060;-80
2022/09/12 05:24:06;;;;;;;;;13.75;13.75;;;;;-144.76;100.00;60493.00;5093684;27;52398;-80
2022/09/12 05:26:32;;;;;;;;;16.33;16.00;;;;;-144.76;100.00;60493.00;5090940;28;54477;-80
2022/09/12 05:28:57;;;;;;;;;17.25;15.00;;;;;-144.76;100.00;60493.00;5092008;27;45079;-80
2022/09/12 05:31:25;;;;;;;;;14.00;13.00;;;;;-144.76;100.00;60493.00;5092479;27;45065;-80
2022/09/12 05:33:53;;;;;;;;;17.00;16.00;;;;;-144.76;100.00;60493.00;5093107;27;44953;-80
2022/09/12 05:36:21;;;;;;;;;13.25;13.25;;;;;-144.76;100.00;60493.00;5093758;27;45688;-80
2022/09/12 05:38:46;;;;;;;;;13.75;13.75;;;;;-144.76;100.00;60493.00;5093640;27;45638;-80
2022/09/12 05:41:18;;;;;;;;;13.50;13.00;;;;;-144.76;100.00;60493.00;5093390;27;45019;-80
2022/09/12 05:43:44;;;;;;;;;14.75;14.50;;;;;-144.76;100.00;60493.00;5107060;27;44952;-80
2022/09/12 05:46:13;;;;;;;;;14.75;14.25;;;;;-144.76;100.00;60493.00;5091518;27;47788;-80
2022/09/12 05:48:41;;;;;;;;;17.00;16.25;;;;;-144.76;100.00;60493.00;5093364;27;45672;-80
2022/09/12 05:51:12;;;;;;;;;16.75;16.25;;;;;-144.76;100.00;60493.00;5093344;27;45001;-80
2022/09/12 05:53:39;;;;;;;;;18.50;16.75;;;;;-144.76;100.00;60493.00;5093505;27;45081;-80
2022/09/12 05:56:08;;;;;;;;;15.00;15.00;;;;;-144.76;100.00;60493.00;5092623;28;45219;-80
2022/09/12 05:58:35;;;;;;;;;16.25;15.00;;;;;-144.76;100.00;60493.00;5092009;27;45124;-79
2022/09/12 06:01:06;;;;;;;;;18.50;17.75;;;;;-144.76;100.00;60493.00;5093376;28;44971;-80
2022/09/12 06:03:36;;;;;;;;;17.50;17.25;;;;;-144.76;100.00;60493.00;5093320;27;45032;-80
2022/09/12 06:06:03;;;;;;;;;13.75;13.25;;;;;-144.76;100.00;60493.00;5093203;27;45821;-80
2022/09/12 06:08:29;;;;;;;;;14.50;14.00;;;;;-144.76;100.00;60493.00;5091458;27;45168;-80
2022/09/12 06:11:02;;;;;;;;;16.00;15.25;;;;;-144.76;100.00;60493.00;5093243;27;44932;-80
2022/09/12 06:13:27;;;;;;;;;16.50;16.25;;;;;-144.76;100.00;60493.00;5091059;28;45333;-80
2022/09/12 06:15:53;;;;;;;;;19.25;17.75;;;;;-144.76;100.00;60493.00;5092736;27;45742;-80
2022/09/12 06:18:19;;;;;;;;;19.00;18.00;;;;;-144.76;100.00;60493.00;5092692;27;45004;-80
2022/09/12 06:20:45;;;;;;;;;19.00;18.00;;;;;-144.76;100.00;60493.00;5092770;27;44953;-80
2022/09/12 06:23:11;;;;;;;;;20.00;18.50;;;;;-144.76;100.00;60493.00;5092866;27;44996;-80
2022/09/12 06:25:37;;;;;;;;;18.25;17.00;;;;;-144.76;100.00;60493.00;5092090;28;45085;-80
2022/09/12 06:28:02;;;;;;;;;16.00;16.00;;;;;-144.76;100.00;60493.00;5090856;28;45102;-80
2022/09/12 06:30:28;;;;;;;;;17.25;16.50;;;;;-144.76;100.00;60493.00;5092599;27;44989;-80
2022/09/12 06:32:55;;;;;;;;;19.75;19.00;;;;;-144.76;100.00;60493.00;5091520;27;45100;-80
2022/09/12 06:35:21;;;;;;;;;16.00;15.00;;;;;-144.76;100.00;60493.00;5092585;27;45923;-80
2022/09/12 06:37:46;;;;;;;;;18.00;17.75;;;;;-144.76;100.00;60493.00;5092133;28;45189;-80
2022/09/12 06:40:12;;;;;;;;;17.50;15.50;;;;;-144.76;100.00;60493.00;5092276;27;45032;-80
2022/09/12 06:42:37;;;;;;;;;20.00;20.00;;;;;-144.76;100.00;60493.00;5089695;28;54960;-80
2022/09/12 06:45:03;;;;;;;;;18.50;17.50;;;;;-144.76;100.00;60493.00;5092104;27;45504;-80
2022/09/12 06:47:28;;;;;;;;;17.75;17.50;;;;;-144.76;100.00;60493.00;5092299;28;45032;-80
2022/09/12 06:49:53;;;;;;;;;22.50;21.25;;;;;-144.76;100.00;60493.00;5092447;27;45011;-81
2022/09/12 06:52:18;;;;;;;;;22.67;19.33;;;;;-144.76;100.00;60493.00;5092385;28;47577;-81
2022/09/12 06:54:45;;;;;;;;;22.00;21.00;;;;;-144.76;100.00;60493.00;5091688;27;45616;-81
2022/09/12 06:57:10;;;;;;;;;17.50;17.00;;;;;-144.76;100.00;60493.00;5089940;27;45362;-80
2022/09/12 06:59:35;;;;;;;;;15.67;15.67;;;;;-144.76;100.00;60493.00;5092228;28;45306;-80
2022/09/12 07:02:00;;;;;;;;;20.67;18.33;;;;;-144.76;100.00;60493.00;5091520;28;50827;-81
2022/09/12 07:04:26;;;;;;;;;18.00;18.00;;;;;-144.76;100.00;60493.00;5092016;27;47410;-80
2022/09/12 07:06:52;;;;;;;;;16.00;15.00;;;;;-144.76;100.00;60493.00;5091715;27;45491;-80
2022/09/12 07:09:20;;;;;;;;;15.00;14.67;;;;;-144.76;100.00;60493.00;5092046;28;45054;-80
2022/09/12 07:11:46;;;;;;;;;17.50;17.00;;;;;-144.76;100.00;60493.00;5090888;27;45258;-81
2022/09/12 07:14:13;;;;;;;;;17.00;16.50;;;;;-144.76;100.00;60493.00;5091818;27;45635;-80
2022/09/12 07:16:38;;;;;;;;;16.00;15.25;;;;;-144.76;100.00;60493.00;5092206;27;45599;-80
2022/09/12 07:19:06;;;;;;;;;15.00;15.00;;;;;-144.76;100.00;60493.00;5091754;28;45193;-81
2022/09/12 07:21:35;;;;;;;;;15.50;14.50;;;;;-144.76;100.00;60493.00;5091911;27;45112;-81
2022/09/12 07:24:00;;;;;;;;;13.75;13.25;;;;;-144.76;100.00;60493.00;5092217;28;45484;-80
2022/09/12 07:26:27;;;;;;;;;14.50;13.50;;;;;-144.76;100.00;60493.00;5090855;27;45306;-81
2022/09/12 07:28:54;;;;;;;;;14.50;14.25;;;;;-144.76;100.00;60493.00;5090992;27;44943;-81
2022/09/12 07:31:22;;;;;;;;;15.25;14.00;;;;;-144.76;100.00;60493.00;5091673;27;44932;-80
2022/09/12 07:33:49;;;;;;;;;14.75;14.25;;;;;-144.76;100.00;60493.00;5091348;27;45118;-81
2022/09/12 07:36:16;;;;;;;;;12.25;12.00;;;;;-144.76;100.00;60493.00;5091977;27;45892;-80
2022/09/12 07:38:42;;;;;;;;;14.00;14.00;;;;;-144.76;100.00;60493.00;5091819;27;44996;-81
2022/09/12 07:41:17;;;;;;;;;12.25;12.25;;;;;-144.76;100.00;60493.00;5091400;28;44929;-80
2022/09/12 07:43:43;;;;;;;;;15.50;15.00;;;;;-144.76;100.00;60493.00;5089207;27;45591;-80
2022/09/12 07:46:09;;;;;;;;;12.00;12.00;;;;;-144.76;100.00;60493.00;5091458;28;45086;-80
2022/09/12 07:48:34;;;;;;;;;13.75;12.75;;;;;-144.76;100.00;60493.00;5091816;27;45038;-80
2022/09/12 07:51:02;;;;;;;;;13.00;13.00;;;;;-144.76;100.00;60493.00;5091451;27;44904;-81
2022/09/12 07:53:36;;;;;;;;;13.75;13.00;;;;;-144.76;100.00;60493.00;5091715;27;45675;-81
2022/09/12 07:56:03;;;;;;;;;14.50;13.75;;;;;-144.76;100.00;60493.00;5110812;27;45515;-80
2022/09/12 07:58:29;;;;;;;;;12.25;11.50;;;;;-144.76;100.00;60493.00;5094096;27;45030;-81
2022/09/12 08:01:07;;;;;;;;;12.00;12.00;;;;;-144.76;100.00;60493.00;5093607;28;45184;-81
2022/09/12 08:03:34;;;;;;;;;12.00;10.00;;;;;-144.76;100.00;60493.00;5094681;27;47135;-81
2022/09/12 08:06:26;;;;;;;;;11.75;11.75;;;;;-144.76;100.00;60493.00;5094681;27;45099;-81
2022/09/12 08:08:54;;;;;;;;;10.00;9.50;;;;;-144.76;100.00;60493.00;5095137;27;45286;-80
2022/09/12 08:11:21;;;;;;;;;10.25;9.50;;;;;-144.76;100.00;60493.00;5110193;27;45185;-80
2022/09/12 08:13:47;;;;;;;;;9.50;9.25;;;;;-144.76;100.00;60493.00;5092859;27;45564;-80
2022/09/12 08:16:16;;;;;;;;;10.00;10.00;;;;;-144.76;100.00;60493.00;5094905;27;45534;-80
2022/09/12 08:18:42;;;;;;;;;8.25;8.00;;;;;-144.76;100.00;60493.00;5094441;27;45012;-80
2022/09/12 08:21:12;;;;;;;;;9.75;9.50;;;;;-144.76;100.00;60493.00;5094678;28;45068;-81
2022/09/12 08:23:37;;;;;;;;;7.00;7.00;;;;;-144.76;100.00;60493.00;5093431;28;47681;-80
2022/09/12 08:26:04;;;;;;;;;8.75;8.50;;;;;-144.76;100.00;60493.00;5093752;27;63561;-81
2022/09/12 08:28:31;;;;;;;;;9.00;9.00;;;;;-144.76;100.00;60493.00;5092690;27;45723;-81
2022/09/12 08:31:04;;;;;;;;;8.50;8.50;;;;;-144.76;100.00;60493.00;5094759;28;44908;-80
2022/09/12 08:33:33;;;;;;;;;7.00;6.50;;;;;-144.76;100.00;60493.00;5094289;27;45343;-81
2022/09/12 08:36:23;;;;;;;;;7.25;6.50;;;;;-144.76;100.00;60493.00;5094285;27;45048;-81
2022/09/12 08:38:52;;;;;;;;;8.50;8.50;;;;;-144.76;100.00;60493.00;5094208;27;45046;-81
2022/09/12 08:41:17;;;;;;;;;7.75;7.75;;;;;-144.76;100.00;60493.00;5093995;27;45001;-80
2022/09/12 08:43:52;;;;;;;;;6.50;5.75;;;;;-144.76;100.00;60493.00;5094178;27;46086;-81
2022/09/12 08:46:23;;;;;;;;;7.00;6.75;;;;;-144.76;100.00;60493.00;5094544;28;45611;-80
2022/09/12 08:48:48;;;;;;;;;9.00;7.75;;;;;-144.76;100.00;60493.00;5094834;27;45214;-83
2022/09/12 08:51:18;;;;;;;;;6.00;6.00;;;;;-144.76;100.00;60493.00;5094620;27;44992;-82
2022/09/12 08:53:46;;;;;;;;;7.25;7.00;;;;;-144.76;100.00;60493.00;5094060;28;45609;-82
2022/09/12 08:56:12;;;;;;;;;9.00;8.00;;;;;-144.76;100.00;60493.00;5093947;27;45174;-81
2022/09/12 08:58:42;;;;;;;;;9.50;6.25;;;;;-144.76;100.00;60493.00;5091601;27;44996;-81
2022/09/12 09:01:30;;;;;;;;;6.75;6.75;;;;;-144.76;100.00;60493.00;5094147;27;44963;-80
2022/09/12 09:04:23;;;;;;;;;7.00;7.00;;;;;-144.76;100.00;60493.00;5094107;27;45280;-80
2022/09/12 09:07:33;;;;;;;;;6.50;6.25;;;;;-144.76;100.00;60493.00;5092943;28;45080;-80
2022/09/12 09:10:23;;;;;;;;;8.00;8.00;;;;;-144.76;100.00;60493.00;5093478;27;45032;-80
2022/09/12 09:12:54;;;;;;;;;9.00;9.00;;;;;-144.76;100.00;60493.00;5090864;27;45083;-81
2022/09/12 09:15:33;;;;;;;;;6.50;6.50;;;;;-144.76;100.00;60493.00;5093581;27;46010;-82
2022/09/12 09:18:22;;;;;;;;;7.00;6.25;;;;;-144.76;100.00;60493.00;5091465;28;45481;-81
2022/09/12 09:21:18;;;;;;;;;8.00;7.25;;;;;-144.76;100.00;60493.00;5109442;27;45027;-80
2022/09/12 09:23:49;;;;;;;;;6.75;6.50;;;;;-144.76;100.00;60493.00;5093649;27;45177;-81
2022/09/12 09:26:39;;;;;;;;;6.75;6.25;;;;;-144.76;100.00;60493.00;5093291;27;45918;-81
2022/09/12 09:29:19;;;;;;;;;7.50;7.50;;;;;-144.76;100.00;60493.00;5109429;27;45478;-81
2022/09/12 09:31:51;;;;;;;;;7.25;5.75;;;;;-144.76;100.00;60493.00;5093649;27;45055;-81
2022/09/12 09:34:22;;;;;;;;;11.75;8.00;;;;;-144.76;100.00;60493.00;5093618;27;44969;-81
2022/09/12 09:37:01;;;;;;;;;7.75;7.00;;;;;-144.76;100.00;60493.00;5109243;27;47594;-81
2022/09/12 09:39:57;;;;;;;;;6.50;6.50;;;;;-144.76;100.00;60493.00;5092413;27;45104;-81
2022/09/12 09:42:40;;;;;;;;;5.25;5.25;;;;;-144.76;100.00;60493.00;5091525;27;45214;-80
2022/09/12 09:45:19;;;;;;;;;7.25;6.75;;;;;-144.76;100.00;60493.00;5094308;27;45305;-80
2022/09/12 09:47:51;;;;;;;;;7.75;6.75;;;;;-144.76;100.00;60493.00;5093049;27;45882;-80
2022/09/12 09:50:16;;;;;;;;;7.00;6.00;;;;;-144.76;100.00;60493.00;5093261;27;45120;-81
2022/09/12 09:52:43;;;;;;;;;7.25;6.00;;;;;-144.76;100.00;60493.00;5093505;28;44998;-81
2022/09/12 09:55:17;;;;;;;;;6.75;6.75;;;;;-144.76;100.00;60493.00;5093732;27;44870;-81
2022/09/12 09:57:44;;;;;;;;;7.00;7.00;;;;;-144.76;100.00;60493.00;5090913;27;45223;-81
2022/09/12 10:00:27;;;;;;;;;6.50;6.50;;;;;-144.76;100.00;60493.00;5093146;27;44988;-81
2022/09/12 10:03:19;;;;;;;;;7.25;6.50;;;;;-144.76;100.00;60493.00;5093260;27;45248;-81
2022/09/12 10:05:47;;;;;;;;;6.00;6.00;;;;;-144.76;100.00;60493.00;5108973;27;45240;-81
2022/09/12 10:08:25;;;;;;;;;6.00;6.00;;;;;-144.76;100.00;60493.00;5093054;28;45120;-81
2022/09/12 10:11:17;;;;;;;;;7.00;5.00;;;;;-144.76;100.00;60493.00;5092021;27;45364;-80
2022/09/12 10:13:43;;;;;;;;;8.00;5.50;;;;;-144.76;100.00;60493.00;5093283;27;45300;-81
2022/09/12 10:16:19;;;;;;;;;6.00;5.75;;;;;-144.76;100.00;60493.00;5092539;27;45196;-81
2022/09/12 10:18:45;;;;;;;;;5.75;5.25;;;;;-144.76;100.00;60493.00;5092244;28;45230;-80
2022/09/12 10:21:22;;;;;;;;;5.75;5.00;;;;;-144.76;100.00;60493.00;5092239;27;45205;-81
2022/09/12 10:24:07;;;;;;;;;5.75;5.00;;;;;-144.76;100.00;60493.00;5092833;27;45027;-81
2022/09/12 10:26:39;;;;;;;;;6.00;5.00;;;;;-144.76;100.00;60493.00;5106175;27;45051;-80
2022/09/12 10:29:14;;;;;;;;;5.50;5.00;;;;;-144.76;100.00;60493.00;5092342;28;45856;-81
2022/09/12 10:32:05;;;;;;;;;5.00;4.00;;;;;-144.76;100.00;60493.00;5092447;28;45009;-80
2022/09/12 10:34:36;;;;;;;;;4.25;4.25;;;;;-144.76;100.00;60493.00;5105495;27;45143;-81
2022/09/12 10:37:07;;;;;;;;;3.25;3.25;;;;;-144.76;100.00;60493.00;5092040;27;45094;-82
2022/09/12 10:39:34;;;;;;;;;4.75;4.75;;;;;-144.76;100.00;60493.00;5092354;28;45575;-80
2022/09/12 10:42:01;;;;;;;;;3.50;3.50;;;;;-144.76;100.00;60493.00;5090883;27;45380;-81
2022/09/12 10:44:29;;;;;;;;;5.00;4.50;;;;;-144.76;100.00;60493.00;5090583;28;45080;-81
2022/09/12 10:46:56;;;;;;;;;3.25;3.00;;;;;-144.76;100.00;60493.00;5092430;27;45067;-82
2022/09/12 10:49:24;;;;;;;;;3.00;3.00;;;;;-144.76;100.00;60493.00;5092001;27;45094;-80
2022/09/12 10:51:50;;;;;;;;;3.75;3.75;;;;;-144.76;100.00;60493.00;5091775;27;44984;-81
2022/09/12 10:54:20;;;;;;;;;2.75;2.75;;;;;-144.76;100.00;60493.00;5107982;27;45178;-81
2022/09/12 10:57:13;;;;;;;;;4.00;4.00;;;;;-144.76;100.00;60493.00;5091111;27;45084;-81
2022/09/12 11:00:13;;;;;;;;;3.00;3.00;;;;;-144.76;100.00;60493.00;5092136;27;45970;-81
2022/09/12 11:02:47;;;;;;;;;3.00;3.00;;;;;-144.76;100.00;60493.00;5092215;27;45166;-81
2022/09/12 11:05:22;;;;;;;;;3.25;3.25;;;;;-144.76;100.00;60493.00;5092588;27;45000;-82
2022/09/12 11:08:05;;;;;;;;;3.00;3.00;;;;;-144.76;100.00;60493.00;5092191;27;44949;-81
2022/09/12 11:10:53;;;;;;;;;2.50;2.50;;;;;-144.76;100.00;60493.00;5092209;28;45318;-81
2022/09/12 11:13:34;;;;;;;;;4.00;2.75;;;;;-144.76;100.00;60493.00;5091703;27;45053;-82
2022/09/12 11:16:29;;;;;;;;;1.50;1.50;;;;;-144.76;100.00;60493.00;5092464;27;45001;-82
2022/09/12 11:19:08;;;;;;;;;4.00;4.00;;;;;-144.76;100.00;60493.00;5091862;27;45324;-81